Islamorada, FL (33036)

11:51 PM EST on February 26, 2015 (GMT -0500)
Keith & Patty's Islamorada Weather | Change Station
CLOSE
Current Station
Personal Weather Station
Location: Islamorada, FL
Elevation: 5 ft
Nearby Weather Stations

Elev 5 ft 24.92 °N, 80.63 °W | Updated 43 seconds ago

Mostly Cloudy
Mostly Cloudy
74.5 °F
Feels Like 72 °F
N
0.0
Wind Variable Wind from SE
Gusts 12.0 mph

Today
High -- | Low -- °F
--% Chance of Precip.
Yesterday
High -- | Low -- °F
Precip. -- in
6:48 AM 6:23 PM
Waxing Gibbous, 65% visible
Pressure 30.01 in
Visibility 10.0 miles
Clouds Mostly Cloudy 3000 ft
Heat Index 72 °F
Dew Point 73 °F
Humidity 95%
Rainfall 0.00 in
Snow Depth Not available.
UV 0 out of 12
Pollen 9.90 out of 12
Air Quality Not available.
Flu Activity Not available.
METAR KHST 270358Z AUTO 17003KT 10SM BKN030 22/21 A3000 RMK AO2 DZB33E42 SLP162 P0000 T02220212

More Conditions Fewer Conditions

Pressure 30.01 in
Visibility 10.0 miles
Clouds Mostly Cloudy 3000 ft
Heat Index 72 °F
Dew Point 73 °F
Humidity 95%
Rainfall 0.00 in
Snow Depth Not available.
UV 0 out of 12
Pollen 9.90 out of 12
Air Quality Not available.
Flu Activity Not available.
METAR KHST 270358Z AUTO 17003KT 10SM BKN030 22/21 A3000 RMK AO2 DZB33E42 SLP162 P0000 T02220212

More Conditions Fewer Conditions

10-Day Weather Forecast

Almanac

Astronomy

Feb. 26, 2015 Rise Set
Actual Time
Civil Twilight
Nautical Twilight
Astronomical Twilight
Moon
Length of Visible Light
Length of Day
Tomorrow will be .
, % of the Moon is Illuminated

Today's Extremes

State Highs State Lows

Community

WunderPhotos

Upload Photos

1,800,632 photos uploaded!

WunderBlogs® & News

Nearby

Air Quality

  Air Quality AQ Index Pollutant
Not available.

Snow Depth

Station Depth Elevation

Earthquake Activity

City Distance Mag. Time & Date
Minimum magnitude displayed is 2.5.

Coastal Water Temperatures

Place Temperature

Nearby Weather Stations